sensor_id;sensor_type;location;lat;lon;timestamp;P1;durP1;ratioP1;P2;durP2;ratioP2
71095;SDS011;58753;49.440;11.126;2022-08-21T00:01:29;9.15;;;2.90;;
71095;SDS011;58753;49.440;11.126;2022-08-21T00:03:55;6.53;;;3.38;;
71095;SDS011;58753;49.440;11.126;2022-08-21T00:06:21;6.57;;;3.20;;
71095;SDS011;58753;49.440;11.126;2022-08-21T00:08:49;5.70;;;2.70;;
71095;SDS011;58753;49.440;11.126;2022-08-21T00:11:15;8.30;;;2.90;;
71095;SDS011;58753;49.440;11.126;2022-08-21T00:13:40;5.10;;;2.70;;
71095;SDS011;58753;49.440;11.126;2022-08-21T00:16:06;5.07;;;2.47;;
71095;SDS011;58753;49.440;11.126;2022-08-21T00:18:31;5.20;;;2.73;;
71095;SDS011;58753;49.440;11.126;2022-08-21T00:20:57;5.82;;;2.65;;
71095;SDS011;58753;49.440;11.126;2022-08-21T00:23:23;4.77;;;2.63;;
71095;SDS011;58753;49.440;11.126;2022-08-21T00:25:48;5.33;;;2.73;;
71095;SDS011;58753;49.440;11.126;2022-08-21T00:28:14;5.65;;;3.10;;
71095;SDS011;58753;49.440;11.126;2022-08-21T00:30:40;5.53;;;3.03;;
71095;SDS011;58753;49.440;11.126;2022-08-21T00:33:06;6.03;;;3.07;;
71095;SDS011;58753;49.440;11.126;2022-08-21T00:35:35;6.25;;;2.85;;
71095;SDS011;58753;49.440;11.126;2022-08-21T00:38:04;5.25;;;2.75;;
71095;SDS011;58753;49.440;11.126;2022-08-21T00:40:45;5.68;;;2.67;;
71095;SDS011;58753;49.440;11.126;2022-08-21T00:43:14;4.75;;;2.88;;
71095;SDS011;58753;49.440;11.126;2022-08-21T00:45:41;6.33;;;3.13;;
71095;SDS011;58753;49.440;11.126;2022-08-21T00:48:07;5.60;;;2.90;;
71095;SDS011;58753;49.440;11.126;2022-08-21T00:50:34;8.73;;;2.97;;
71095;SDS011;58753;49.440;11.126;2022-08-21T00:53:15;6.40;;;2.75;;
71095;SDS011;58753;49.440;11.126;2022-08-21T00:55:42;7.82;;;3.63;;
71095;SDS011;58753;49.440;11.126;2022-08-21T00:58:09;6.25;;;3.47;;
71095;SDS011;58753;49.440;11.126;2022-08-21T01:00:37;5.00;;;2.95;;
71095;SDS011;58753;49.440;11.126;2022-08-21T01:03:07;5.60;;;3.33;;
71095;SDS011;58753;49.440;11.126;2022-08-21T01:05:38;5.47;;;2.72;;
71095;SDS011;58753;49.440;11.126;2022-08-21T01:08:04;5.65;;;3.03;;
71095;SDS011;58753;49.440;11.126;2022-08-21T01:10:32;6.15;;;3.42;;
71095;SDS011;58753;49.440;11.126;2022-08-21T01:12:58;7.70;;;3.35;;
71095;SDS011;58753;49.440;11.126;2022-08-21T01:15:25;6.77;;;2.83;;
71095;SDS011;58753;49.440;11.126;2022-08-21T01:17:56;6.13;;;3.33;;
71095;SDS011;58753;49.440;11.126;2022-08-21T01:20:22;5.40;;;2.80;;
71095;SDS011;58753;49.440;11.126;2022-08-21T01:22:48;5.67;;;2.97;;
71095;SDS011;58753;49.440;11.126;2022-08-21T01:25:14;5.33;;;3.10;;
71095;SDS011;58753;49.440;11.126;2022-08-21T01:27:41;6.60;;;3.05;;
71095;SDS011;58753;49.440;11.126;2022-08-21T01:30:11;5.60;;;2.90;;
71095;SDS011;58753;49.440;11.126;2022-08-21T01:32:49;5.23;;;3.00;;
71095;SDS011;58753;49.440;11.126;2022-08-21T01:35:16;6.20;;;3.60;;
71095;SDS011;58753;49.440;11.126;2022-08-21T01:37:43;6.32;;;3.20;;
71095;SDS011;58753;49.440;11.126;2022-08-21T01:40:09;6.90;;;2.90;;
71095;SDS011;58753;49.440;11.126;2022-08-21T01:42:36;5.85;;;3.22;;
71095;SDS011;58753;49.440;11.126;2022-08-21T01:45:02;6.87;;;2.90;;
71095;SDS011;58753;49.440;11.126;2022-08-21T01:47:29;6.10;;;3.20;;
71095;SDS011;58753;49.440;11.126;2022-08-21T01:49:54;6.10;;;3.03;;
71095;SDS011;58753;49.440;11.126;2022-08-21T01:52:20;7.30;;;3.27;;
71095;SDS011;58753;49.440;11.126;2022-08-21T01:54:45;6.07;;;3.07;;
71095;SDS011;58753;49.440;11.126;2022-08-21T01:57:11;5.87;;;3.33;;
71095;SDS011;58753;49.440;11.126;2022-08-21T01:59:37;7.23;;;3.17;;
71095;SDS011;58753;49.440;11.126;2022-08-21T02:02:03;6.00;;;2.92;;
71095;SDS011;58753;49.440;11.126;2022-08-21T02:04:29;6.70;;;3.10;;
71095;SDS011;58753;49.440;11.126;2022-08-21T02:06:55;6.53;;;3.10;;
71095;SDS011;58753;49.440;11.126;2022-08-21T02:09:21;5.97;;;2.93;;
71095;SDS011;58753;49.440;11.126;2022-08-21T02:11:46;6.47;;;3.07;;
71095;SDS011;58753;49.440;11.126;2022-08-21T02:14:13;6.13;;;3.40;;
71095;SDS011;58753;49.440;11.126;2022-08-21T02:16:40;5.90;;;3.90;;
71095;SDS011;58753;49.440;11.126;2022-08-21T02:19:07;5.72;;;3.08;;
71095;SDS011;58753;49.440;11.126;2022-08-21T02:21:32;8.53;;;3.33;;
71095;SDS011;58753;49.440;11.126;2022-08-21T02:23:58;6.10;;;3.23;;
71095;SDS011;58753;49.440;11.126;2022-08-21T02:26:23;5.30;;;2.50;;
71095;SDS011;58753;49.440;11.126;2022-08-21T02:28:49;5.20;;;2.92;;
71095;SDS011;58753;49.440;11.126;2022-08-21T02:31:15;5.20;;;2.20;;
71095;SDS011;58753;49.440;11.126;2022-08-21T02:33:40;6.13;;;2.63;;
71095;SDS011;58753;49.440;11.126;2022-08-21T02:36:06;7.13;;;2.70;;
71095;SDS011;58753;49.440;11.126;2022-08-21T02:38:33;5.80;;;2.58;;
71095;SDS011;58753;49.440;11.126;2022-08-21T02:41:02;6.03;;;3.03;;
71095;SDS011;58753;49.440;11.126;2022-08-21T02:43:30;5.30;;;2.60;;
71095;SDS011;58753;49.440;11.126;2022-08-21T02:45:56;6.67;;;3.17;;
71095;SDS011;58753;49.440;11.126;2022-08-21T02:48:24;6.13;;;3.15;;
71095;SDS011;58753;49.440;11.126;2022-08-21T02:50:53;6.93;;;2.70;;
71095;SDS011;58753;49.440;11.126;2022-08-21T02:53:23;5.13;;;2.80;;
71095;SDS011;58753;49.440;11.126;2022-08-21T02:55:50;5.88;;;2.95;;
71095;SDS011;58753;49.440;11.126;2022-08-21T02:58:18;4.17;;;2.43;;
71095;SDS011;58753;49.440;11.126;2022-08-21T03:00:45;5.80;;;2.60;;
71095;SDS011;58753;49.440;11.126;2022-08-21T03:03:11;5.00;;;2.53;;
71095;SDS011;58753;49.440;11.126;2022-08-21T03:05:38;4.70;;;2.58;;
71095;SDS011;58753;49.440;11.126;2022-08-21T03:08:05;4.65;;;2.40;;
71095;SDS011;58753;49.440;11.126;2022-08-21T03:10:34;5.10;;;2.83;;
71095;SDS011;58753;49.440;11.126;2022-08-21T03:13:00;5.63;;;2.75;;
71095;SDS011;58753;49.440;11.126;2022-08-21T03:15:27;5.28;;;2.60;;
71095;SDS011;58753;49.440;11.126;2022-08-21T03:17:53;4.78;;;2.70;;
71095;SDS011;58753;49.440;11.126;2022-08-21T03:20:20;5.43;;;2.80;;
71095;SDS011;58753;49.440;11.126;2022-08-21T03:22:48;8.30;;;3.13;;
71095;SDS011;58753;49.440;11.126;2022-08-21T03:25:15;4.72;;;2.20;;
71095;SDS011;58753;49.440;11.126;2022-08-21T03:27:40;3.23;;;1.70;;
71095;SDS011;58753;49.440;11.126;2022-08-21T03:30:06;3.83;;;2.40;;
71095;SDS011;58753;49.440;11.126;2022-08-21T03:32:33;5.55;;;2.58;;
71095;SDS011;58753;49.440;11.126;2022-08-21T03:34:58;5.27;;;2.50;;
71095;SDS011;58753;49.440;11.126;2022-08-21T03:37:25;5.22;;;2.53;;
71095;SDS011;58753;49.440;11.126;2022-08-21T03:39:50;4.60;;;2.60;;
71095;SDS011;58753;49.440;11.126;2022-08-21T03:42:16;4.67;;;2.30;;
71095;SDS011;58753;49.440;11.126;2022-08-21T03:44:41;4.37;;;2.40;;
71095;SDS011;58753;49.440;11.126;2022-08-21T03:47:07;7.60;;;2.57;;
71095;SDS011;58753;49.440;11.126;2022-08-21T03:49:34;5.07;;;2.70;;
71095;SDS011;58753;49.440;11.126;2022-08-21T03:52:00;5.35;;;2.75;;
71095;SDS011;58753;49.440;11.126;2022-08-21T03:54:26;5.70;;;2.87;;
71095;SDS011;58753;49.440;11.126;2022-08-21T03:56:52;4.32;;;2.17;;
71095;SDS011;58753;49.440;11.126;2022-08-21T03:59:17;5.07;;;2.63;;
71095;SDS011;58753;49.440;11.126;2022-08-21T04:01:56;7.93;;;2.17;;
71095;SDS011;58753;49.440;11.126;2022-08-21T04:04:24;5.53;;;2.70;;
71095;SDS011;58753;49.440;11.126;2022-08-21T04:06:51;6.07;;;3.10;;
71095;SDS011;58753;49.440;11.126;2022-08-21T04:09:17;6.37;;;3.03;;
71095;SDS011;58753;49.440;11.126;2022-08-21T04:11:43;6.43;;;3.22;;
71095;SDS011;58753;49.440;11.126;2022-08-21T04:14:08;5.78;;;2.63;;
71095;SDS011;58753;49.440;11.126;2022-08-21T04:16:34;7.30;;;3.67;;
71095;SDS011;58753;49.440;11.126;2022-08-21T04:19:00;7.15;;;2.95;;
71095;SDS011;58753;49.440;11.126;2022-08-21T04:21:26;9.43;;;3.40;;
71095;SDS011;58753;49.440;11.126;2022-08-21T04:23:53;6.18;;;3.22;;
71095;SDS011;58753;49.440;11.126;2022-08-21T04:26:20;11.30;;;4.30;;
71095;SDS011;58753;49.440;11.126;2022-08-21T04:28:45;8.97;;;3.90;;
71095;SDS011;58753;49.440;11.126;2022-08-21T04:31:11;8.90;;;4.45;;
71095;SDS011;58753;49.440;11.126;2022-08-21T04:33:36;10.80;;;4.73;;
71095;SDS011;58753;49.440;11.126;2022-08-21T04:36:02;9.70;;;4.27;;
71095;SDS011;58753;49.440;11.126;2022-08-21T04:38:28;10.45;;;5.03;;
71095;SDS011;58753;49.440;11.126;2022-08-21T04:40:55;10.40;;;5.13;;
71095;SDS011;58753;49.440;11.126;2022-08-21T04:43:21;9.40;;;3.87;;
71095;SDS011;58753;49.440;11.126;2022-08-21T04:45:48;10.18;;;3.95;;
71095;SDS011;58753;49.440;11.126;2022-08-21T04:48:17;12.43;;;4.70;;
71095;SDS011;58753;49.440;11.126;2022-08-21T04:50:50;11.80;;;4.72;;
71095;SDS011;58753;49.440;11.126;2022-08-21T04:55:45;11.20;;;4.82;;
71095;SDS011;58753;49.440;11.126;2022-08-21T04:58:12;10.25;;;4.60;;
71095;SDS011;58753;49.440;11.126;2022-08-21T05:00:42;13.30;;;5.10;;
71095;SDS011;58753;49.440;11.126;2022-08-21T05:03:08;12.20;;;4.63;;
71095;SDS011;58753;49.440;11.126;2022-08-21T05:05:36;15.50;;;6.05;;
71095;SDS011;58753;49.440;11.126;2022-08-21T05:08:02;13.45;;;5.47;;
71095;SDS011;58753;49.440;11.126;2022-08-21T05:10:28;12.70;;;5.60;;
71095;SDS011;58753;49.440;11.126;2022-08-21T05:12:56;15.80;;;5.10;;
71095;SDS011;58753;49.440;11.126;2022-08-21T05:15:22;14.07;;;5.60;;
71095;SDS011;58753;49.440;11.126;2022-08-21T05:17:48;13.65;;;5.43;;
71095;SDS011;58753;49.440;11.126;2022-08-21T05:20:15;12.85;;;5.65;;
71095;SDS011;58753;49.440;11.126;2022-08-21T05:22:41;13.70;;;5.87;;
71095;SDS011;58753;49.440;11.126;2022-08-21T05:25:08;16.85;;;6.15;;
71095;SDS011;58753;49.440;11.126;2022-08-21T05:27:34;13.75;;;5.63;;
71095;SDS011;58753;49.440;11.126;2022-08-21T05:30:00;15.93;;;5.67;;
71095;SDS011;58753;49.440;11.126;2022-08-21T05:32:25;14.65;;;6.32;;
71095;SDS011;58753;49.440;11.126;2022-08-21T05:34:52;21.23;;;7.03;;
71095;SDS011;58753;49.440;11.126;2022-08-21T05:37:18;14.40;;;5.78;;
71095;SDS011;58753;49.440;11.126;2022-08-21T05:39:44;16.63;;;7.35;;
71095;SDS011;58753;49.440;11.126;2022-08-21T05:42:09;17.13;;;6.67;;
71095;SDS011;58753;49.440;11.126;2022-08-21T05:44:35;18.20;;;6.83;;
71095;SDS011;58753;49.440;11.126;2022-08-21T05:47:09;17.87;;;7.37;;
71095;SDS011;58753;49.440;11.126;2022-08-21T05:49:36;15.82;;;6.82;;
71095;SDS011;58753;49.440;11.126;2022-08-21T05:52:02;19.10;;;8.63;;
71095;SDS011;58753;49.440;11.126;2022-08-21T05:54:28;17.63;;;7.72;;
71095;SDS011;58753;49.440;11.126;2022-08-21T05:56:54;19.05;;;7.13;;
71095;SDS011;58753;49.440;11.126;2022-08-21T05:59:20;20.80;;;8.50;;
71095;SDS011;58753;49.440;11.126;2022-08-21T06:01:45;17.77;;;8.10;;
71095;SDS011;58753;49.440;11.126;2022-08-21T06:04:11;17.17;;;8.10;;
71095;SDS011;58753;49.440;11.126;2022-08-21T06:06:37;19.17;;;7.70;;
71095;SDS011;58753;49.440;11.126;2022-08-21T06:09:03;14.75;;;7.57;;
71095;SDS011;58753;49.440;11.126;2022-08-21T06:11:29;14.88;;;7.28;;
71095;SDS011;58753;49.440;11.126;2022-08-21T06:13:54;16.20;;;7.67;;
71095;SDS011;58753;49.440;11.126;2022-08-21T06:16:20;16.23;;;8.00;;
71095;SDS011;58753;49.440;11.126;2022-08-21T06:18:47;19.73;;;8.53;;
71095;SDS011;58753;49.440;11.126;2022-08-21T06:21:12;17.70;;;7.93;;
71095;SDS011;58753;49.440;11.126;2022-08-21T06:23:38;17.63;;;7.78;;
71095;SDS011;58753;49.440;11.126;2022-08-21T06:26:05;15.20;;;7.20;;
71095;SDS011;58753;49.440;11.126;2022-08-21T06:28:35;15.75;;;7.65;;
71095;SDS011;58753;49.440;11.126;2022-08-21T06:31:09;15.57;;;8.23;;
71095;SDS011;58753;49.440;11.126;2022-08-21T06:33:35;16.75;;;8.45;;
71095;SDS011;58753;49.440;11.126;2022-08-21T06:36:01;16.07;;;8.33;;
71095;SDS011;58753;49.440;11.126;2022-08-21T06:38:26;19.93;;;8.60;;
71095;SDS011;58753;49.440;11.126;2022-08-21T06:40:54;18.80;;;7.85;;
71095;SDS011;58753;49.440;11.126;2022-08-21T06:43:26;16.70;;;7.63;;
71095;SDS011;58753;49.440;11.126;2022-08-21T06:45:51;15.93;;;7.88;;
71095;SDS011;58753;49.440;11.126;2022-08-21T06:48:17;20.87;;;8.63;;
71095;SDS011;58753;49.440;11.126;2022-08-21T06:50:42;20.13;;;9.75;;
71095;SDS011;58753;49.440;11.126;2022-08-21T06:53:09;19.10;;;8.87;;
71095;SDS011;58753;49.440;11.126;2022-08-21T06:55:36;15.93;;;8.05;;
71095;SDS011;58753;49.440;11.126;2022-08-21T06:58:03;17.73;;;8.03;;
71095;SDS011;58753;49.440;11.126;2022-08-21T07:00:29;15.80;;;7.55;;
71095;SDS011;58753;49.440;11.126;2022-08-21T07:02:55;18.80;;;8.15;;
71095;SDS011;58753;49.440;11.126;2022-08-21T07:05:21;16.65;;;8.38;;
71095;SDS011;58753;49.440;11.126;2022-08-21T07:07:47;16.00;;;7.90;;
71095;SDS011;58753;49.440;11.126;2022-08-21T07:10:13;15.37;;;7.70;;
71095;SDS011;58753;49.440;11.126;2022-08-21T07:12:39;18.58;;;9.40;;
71095;SDS011;58753;49.440;11.126;2022-08-21T07:15:06;17.73;;;9.23;;
71095;SDS011;58753;49.440;11.126;2022-08-21T07:17:32;18.88;;;9.25;;
71095;SDS011;58753;49.440;11.126;2022-08-21T07:19:57;16.67;;;8.80;;
71095;SDS011;58753;49.440;11.126;2022-08-21T07:22:23;16.37;;;8.13;;
71095;SDS011;58753;49.440;11.126;2022-08-21T07:24:48;15.32;;;8.15;;
71095;SDS011;58753;49.440;11.126;2022-08-21T07:27:14;16.73;;;8.27;;
71095;SDS011;58753;49.440;11.126;2022-08-21T07:29:40;15.57;;;7.80;;
71095;SDS011;58753;49.440;11.126;2022-08-21T07:32:05;14.80;;;7.93;;
71095;SDS011;58753;49.440;11.126;2022-08-21T07:34:31;14.43;;;7.68;;
71095;SDS011;58753;49.440;11.126;2022-08-21T07:36:57;15.27;;;8.18;;
71095;SDS011;58753;49.440;11.126;2022-08-21T07:39:23;16.03;;;8.77;;
71095;SDS011;58753;49.440;11.126;2022-08-21T07:41:49;16.88;;;8.95;;
71095;SDS011;58753;49.440;11.126;2022-08-21T07:44:15;15.38;;;8.45;;
71095;SDS011;58753;49.440;11.126;2022-08-21T07:46:40;14.70;;;8.17;;
71095;SDS011;58753;49.440;11.126;2022-08-21T07:49:06;12.30;;;7.30;;
71095;SDS011;58753;49.440;11.126;2022-08-21T07:51:34;12.20;;;7.40;;
71095;SDS011;58753;49.440;11.126;2022-08-21T07:54:00;16.33;;;9.53;;
71095;SDS011;58753;49.440;11.126;2022-08-21T08:03:25;17.92;;;9.70;;
71095;SDS011;58753;49.440;11.126;2022-08-21T08:05:51;14.70;;;8.20;;
71095;SDS011;58753;49.440;11.126;2022-08-21T08:08:16;17.67;;;9.03;;
71095;SDS011;58753;49.440;11.126;2022-08-21T08:10:42;14.65;;;8.80;;
71095;SDS011;58753;49.440;11.126;2022-08-21T08:13:08;14.83;;;8.20;;
71095;SDS011;58753;49.440;11.126;2022-08-21T08:15:34;17.67;;;9.57;;
71095;SDS011;58753;49.440;11.126;2022-08-21T08:18:01;15.90;;;9.02;;
71095;SDS011;58753;49.440;11.126;2022-08-21T08:20:26;17.80;;;10.33;;
71095;SDS011;58753;49.440;11.126;2022-08-21T08:22:53;16.83;;;10.00;;
71095;SDS011;58753;49.440;11.126;2022-08-21T08:25:19;16.95;;;10.25;;
71095;SDS011;58753;49.440;11.126;2022-08-21T08:27:46;17.27;;;10.00;;
71095;SDS011;58753;49.440;11.126;2022-08-21T08:30:12;17.10;;;9.87;;
71095;SDS011;58753;49.440;11.126;2022-08-21T08:32:39;15.77;;;8.88;;
71095;SDS011;58753;49.440;11.126;2022-08-21T08:35:05;17.45;;;10.05;;
71095;SDS011;58753;49.440;11.126;2022-08-21T08:37:32;15.90;;;10.20;;
71095;SDS011;58753;49.440;11.126;2022-08-21T08:39:57;13.10;;;8.23;;
71095;SDS011;58753;49.440;11.126;2022-08-21T08:42:30;15.43;;;9.10;;
71095;SDS011;58753;49.440;11.126;2022-08-21T08:45:00;15.27;;;9.20;;
71095;SDS011;58753;49.440;11.126;2022-08-21T08:47:35;14.10;;;8.57;;
71095;SDS011;58753;49.440;11.126;2022-08-21T08:52:48;15.32;;;9.80;;
71095;SDS011;58753;49.440;11.126;2022-08-21T08:55:18;15.07;;;9.35;;
71095;SDS011;58753;49.440;11.126;2022-08-21T08:57:48;15.30;;;9.60;;
71095;SDS011;58753;49.440;11.126;2022-08-21T09:00:17;15.68;;;9.38;;
71095;SDS011;58753;49.440;11.126;2022-08-21T09:02:44;14.15;;;9.13;;
71095;SDS011;58753;49.440;11.126;2022-08-21T09:05:20;13.77;;;8.82;;
71095;SDS011;58753;49.440;11.126;2022-08-21T09:19:17;12.73;;;8.50;;
71095;SDS011;58753;49.440;11.126;2022-08-21T09:22:02;13.35;;;8.43;;
71095;SDS011;58753;49.440;11.126;2022-08-21T09:27:51;13.10;;;8.65;;
71095;SDS011;58753;49.440;11.126;2022-08-21T09:30:17;13.90;;;8.47;;
71095;SDS011;58753;49.440;11.126;2022-08-21T09:32:44;14.02;;;8.50;;
71095;SDS011;58753;49.440;11.126;2022-08-21T09:35:11;13.73;;;9.13;;
71095;SDS011;58753;49.440;11.126;2022-08-21T09:38:04;14.27;;;9.37;;
71095;SDS011;58753;49.440;11.126;2022-08-21T09:40:42;13.07;;;7.55;;
71095;SDS011;58753;49.440;11.126;2022-08-21T09:46:01;15.85;;;9.45;;
71095;SDS011;58753;49.440;11.126;2022-08-21T09:48:29;13.57;;;8.55;;
71095;SDS011;58753;49.440;11.126;2022-08-21T09:51:07;12.68;;;7.65;;
71095;SDS011;58753;49.440;11.126;2022-08-21T09:53:37;10.85;;;6.88;;
71095;SDS011;58753;49.440;11.126;2022-08-21T09:56:16;12.93;;;8.07;;
71095;SDS011;58753;49.440;11.126;2022-08-21T09:59:12;12.05;;;7.57;;
71095;SDS011;58753;49.440;11.126;2022-08-21T10:01:43;14.30;;;8.45;;
71095;SDS011;58753;49.440;11.126;2022-08-21T10:04:14;13.18;;;7.22;;
71095;SDS011;58753;49.440;11.126;2022-08-21T10:06:40;11.32;;;6.93;;
71095;SDS011;58753;49.440;11.126;2022-08-21T10:09:08;13.30;;;8.43;;
71095;SDS011;58753;49.440;11.126;2022-08-21T10:11:35;11.15;;;7.60;;
71095;SDS011;58753;49.440;11.126;2022-08-21T10:19:48;12.00;;;7.28;;
71095;SDS011;58753;49.440;11.126;2022-08-21T10:30:21;10.90;;;6.83;;
71095;SDS011;58753;49.440;11.126;2022-08-21T10:35:23;11.05;;;7.15;;
71095;SDS011;58753;49.440;11.126;2022-08-21T10:41:06;12.15;;;7.28;;
71095;SDS011;58753;49.440;11.126;2022-08-21T10:54:56;10.87;;;7.03;;
71095;SDS011;58753;49.440;11.126;2022-08-21T11:00:20;7.95;;;4.97;;
71095;SDS011;58753;49.440;11.126;2022-08-21T11:03:01;7.82;;;5.00;;
71095;SDS011;58753;49.440;11.126;2022-08-21T11:05:33;11.90;;;5.90;;
71095;SDS011;58753;49.440;11.126;2022-08-21T11:10:40;8.75;;;5.20;;
71095;SDS011;58753;49.440;11.126;2022-08-21T11:13:31;8.15;;;5.05;;
71095;SDS011;58753;49.440;11.126;2022-08-21T11:16:02;7.57;;;5.00;;
71095;SDS011;58753;49.440;11.126;2022-08-21T11:18:46;7.60;;;4.23;;
71095;SDS011;58753;49.440;11.126;2022-08-21T11:29:37;7.55;;;4.20;;
71095;SDS011;58753;49.440;11.126;2022-08-21T11:35:16;6.70;;;4.55;;
71095;SDS011;58753;49.440;11.126;2022-08-21T11:46:56;4.47;;;3.23;;
71095;SDS011;58753;49.440;11.126;2022-08-21T11:49:28;4.00;;;2.70;;
71095;SDS011;58753;49.440;11.126;2022-08-21T11:55:08;3.83;;;2.78;;
71095;SDS011;58753;49.440;11.126;2022-08-21T11:57:49;4.88;;;2.85;;
71095;SDS011;58753;49.440;11.126;2022-08-21T12:00:20;3.38;;;2.28;;
71095;SDS011;58753;49.440;11.126;2022-08-21T12:02:52;4.47;;;2.63;;
71095;SDS011;58753;49.440;11.126;2022-08-21T12:08:36;4.03;;;2.58;;
71095;SDS011;58753;49.440;11.126;2022-08-21T12:13:52;4.70;;;2.90;;
71095;SDS011;58753;49.440;11.126;2022-08-21T12:16:35;5.27;;;2.63;;
71095;SDS011;58753;49.440;11.126;2022-08-21T12:19:12;3.95;;;2.47;;
71095;SDS011;58753;49.440;11.126;2022-08-21T12:22:07;5.80;;;3.50;;
71095;SDS011;58753;49.440;11.126;2022-08-21T12:24:39;6.43;;;3.65;;
71095;SDS011;58753;49.440;11.126;2022-08-21T12:27:18;4.63;;;2.63;;
71095;SDS011;58753;49.440;11.126;2022-08-21T12:29:56;5.63;;;3.20;;
71095;SDS011;58753;49.440;11.126;2022-08-21T12:32:28;5.03;;;3.10;;
71095;SDS011;58753;49.440;11.126;2022-08-21T12:37:43;4.20;;;2.78;;
71095;SDS011;58753;49.440;11.126;2022-08-21T12:40:20;4.63;;;2.93;;
71095;SDS011;58753;49.440;11.126;2022-08-21T12:42:49;4.83;;;3.17;;
71095;SDS011;58753;49.440;11.126;2022-08-21T12:45:22;5.32;;;3.45;;
71095;SDS011;58753;49.440;11.126;2022-08-21T12:47:56;4.38;;;2.70;;
71095;SDS011;58753;49.440;11.126;2022-08-21T12:50:41;5.93;;;2.80;;
71095;SDS011;58753;49.440;11.126;2022-08-21T12:53:12;5.20;;;3.00;;
71095;SDS011;58753;49.440;11.126;2022-08-21T12:55:48;4.72;;;2.67;;
71095;SDS011;58753;49.440;11.126;2022-08-21T12:58:18;4.97;;;2.80;;
71095;SDS011;58753;49.440;11.126;2022-08-21T13:00:56;3.80;;;2.40;;
71095;SDS011;58753;49.440;11.126;2022-08-21T13:03:31;3.88;;;2.60;;
71095;SDS011;58753;49.440;11.126;2022-08-21T13:06:02;4.53;;;2.85;;
71095;SDS011;58753;49.440;11.126;2022-08-21T13:08:29;3.70;;;2.17;;
71095;SDS011;58753;49.440;11.126;2022-08-21T13:11:03;3.83;;;2.67;;
71095;SDS011;58753;49.440;11.126;2022-08-21T13:13:31;6.53;;;2.83;;
71095;SDS011;58753;49.440;11.126;2022-08-21T13:15:58;4.37;;;2.90;;
71095;SDS011;58753;49.440;11.126;2022-08-21T13:18:27;4.47;;;2.20;;
71095;SDS011;58753;49.440;11.126;2022-08-21T13:21:04;3.80;;;2.88;;
71095;SDS011;58753;49.440;11.126;2022-08-21T13:23:32;4.13;;;2.83;;
71095;SDS011;58753;49.440;11.126;2022-08-21T13:25:58;7.03;;;3.53;;
71095;SDS011;58753;49.440;11.126;2022-08-21T13:28:23;5.17;;;2.97;;
71095;SDS011;58753;49.440;11.126;2022-08-21T13:30:58;4.20;;;2.47;;
71095;SDS011;58753;49.440;11.126;2022-08-21T13:33:26;3.63;;;1.90;;
71095;SDS011;58753;49.440;11.126;2022-08-21T13:38:22;5.97;;;3.08;;
71095;SDS011;58753;49.440;11.126;2022-08-21T13:40:51;7.40;;;3.80;;
71095;SDS011;58753;49.440;11.126;2022-08-21T13:43:31;6.73;;;3.53;;
71095;SDS011;58753;49.440;11.126;2022-08-21T13:45:57;5.22;;;3.42;;
71095;SDS011;58753;49.440;11.126;2022-08-21T13:48:25;35.80;;;17.23;;
71095;SDS011;58753;49.440;11.126;2022-08-21T13:50:52;5.72;;;2.80;;
71095;SDS011;58753;49.440;11.126;2022-08-21T13:56:20;4.10;;;2.38;;
71095;SDS011;58753;49.440;11.126;2022-08-21T13:58:47;3.70;;;2.60;;
71095;SDS011;58753;49.440;11.126;2022-08-21T14:01:20;3.27;;;2.40;;
71095;SDS011;58753;49.440;11.126;2022-08-21T14:06:36;3.00;;;2.10;;
71095;SDS011;58753;49.440;11.126;2022-08-21T14:09:10;3.35;;;2.50;;
71095;SDS011;58753;49.440;11.126;2022-08-21T14:11:56;4.10;;;2.58;;
71095;SDS011;58753;49.440;11.126;2022-08-21T14:14:31;3.33;;;2.13;;
71095;SDS011;58753;49.440;11.126;2022-08-21T14:17:03;4.35;;;2.30;;
71095;SDS011;58753;49.440;11.126;2022-08-21T14:19:41;3.55;;;2.40;;
71095;SDS011;58753;49.440;11.126;2022-08-21T14:27:52;3.27;;;2.27;;
71095;SDS011;58753;49.440;11.126;2022-08-21T14:30:39;3.38;;;2.00;;
71095;SDS011;58753;49.440;11.126;2022-08-21T14:33:16;3.58;;;2.28;;
71095;SDS011;58753;49.440;11.126;2022-08-21T14:35:46;5.82;;;2.10;;
71095;SDS011;58753;49.440;11.126;2022-08-21T14:38:15;3.33;;;2.37;;
71095;SDS011;58753;49.440;11.126;2022-08-21T14:40:43;3.42;;;1.98;;
71095;SDS011;58753;49.440;11.126;2022-08-21T14:43:12;3.40;;;2.42;;
71095;SDS011;58753;49.440;11.126;2022-08-21T14:45:37;4.30;;;2.30;;
71095;SDS011;58753;49.440;11.126;2022-08-21T14:48:05;3.33;;;2.10;;
71095;SDS011;58753;49.440;11.126;2022-08-21T14:50:32;3.63;;;2.13;;
71095;SDS011;58753;49.440;11.126;2022-08-21T14:52:57;3.33;;;2.28;;
71095;SDS011;58753;49.440;11.126;2022-08-21T14:55:22;3.00;;;2.17;;
71095;SDS011;58753;49.440;11.126;2022-08-21T14:57:49;3.53;;;2.40;;
71095;SDS011;58753;49.440;11.126;2022-08-21T15:00:18;3.28;;;1.83;;
71095;SDS011;58753;49.440;11.126;2022-08-21T15:02:47;4.65;;;2.10;;
71095;SDS011;58753;49.440;11.126;2022-08-21T15:05:13;3.35;;;2.38;;
71095;SDS011;58753;49.440;11.126;2022-08-21T15:07:39;3.57;;;2.30;;
71095;SDS011;58753;49.440;11.126;2022-08-21T15:10:04;3.25;;;2.13;;
71095;SDS011;58753;49.440;11.126;2022-08-21T15:12:31;4.00;;;2.17;;
71095;SDS011;58753;49.440;11.126;2022-08-21T15:14:56;3.40;;;2.33;;
71095;SDS011;58753;49.440;11.126;2022-08-21T15:17:22;4.03;;;2.23;;
71095;SDS011;58753;49.440;11.126;2022-08-21T15:19:48;3.13;;;1.63;;
71095;SDS011;58753;49.440;11.126;2022-08-21T15:22:13;3.30;;;1.80;;
71095;SDS011;58753;49.440;11.126;2022-08-21T15:24:39;2.72;;;1.40;;
71095;SDS011;58753;49.440;11.126;2022-08-21T15:27:05;3.27;;;1.77;;
71095;SDS011;58753;49.440;11.126;2022-08-21T15:29:32;4.55;;;1.90;;
71095;SDS011;58753;49.440;11.126;2022-08-21T15:32:03;2.97;;;1.60;;
71095;SDS011;58753;49.440;11.126;2022-08-21T15:34:42;3.90;;;1.88;;
71095;SDS011;58753;49.440;11.126;2022-08-21T15:37:08;3.95;;;1.67;;
71095;SDS011;58753;49.440;11.126;2022-08-21T15:47:36;3.05;;;1.83;;
71095;SDS011;58753;49.440;11.126;2022-08-21T15:50:06;3.15;;;1.67;;
71095;SDS011;58753;49.440;11.126;2022-08-21T15:52:33;2.65;;;1.35;;
71095;SDS011;58753;49.440;11.126;2022-08-21T15:54:59;5.90;;;1.80;;
71095;SDS011;58753;49.440;11.126;2022-08-21T15:57:25;3.13;;;1.80;;
71095;SDS011;58753;49.440;11.126;2022-08-21T15:59:56;3.15;;;1.83;;
71095;SDS011;58753;49.440;11.126;2022-08-21T16:02:28;4.15;;;2.15;;
71095;SDS011;58753;49.440;11.126;2022-08-21T16:04:56;2.72;;;1.80;;
71095;SDS011;58753;49.440;11.126;2022-08-21T16:07:22;2.97;;;1.60;;
71095;SDS011;58753;49.440;11.126;2022-08-21T16:09:48;4.13;;;2.00;;
71095;SDS011;58753;49.440;11.126;2022-08-21T16:12:18;3.13;;;1.80;;
71095;SDS011;58753;49.440;11.126;2022-08-21T16:14:47;4.65;;;1.95;;
71095;SDS011;58753;49.440;11.126;2022-08-21T16:17:12;2.53;;;1.60;;
71095;SDS011;58753;49.440;11.126;2022-08-21T16:19:38;4.80;;;1.70;;
71095;SDS011;58753;49.440;11.126;2022-08-21T16:22:04;5.60;;;2.03;;
71095;SDS011;58753;49.440;11.126;2022-08-21T16:24:29;3.92;;;2.05;;
71095;SDS011;58753;49.440;11.126;2022-08-21T16:26:55;3.30;;;2.00;;
71095;SDS011;58753;49.440;11.126;2022-08-21T16:29:21;4.97;;;2.03;;
71095;SDS011;58753;49.440;11.126;2022-08-21T16:31:47;3.00;;;1.70;;
71095;SDS011;58753;49.440;11.126;2022-08-21T16:34:15;2.13;;;1.17;;
71095;SDS011;58753;49.440;11.126;2022-08-21T16:36:42;3.00;;;1.67;;